createdAt,value
2017-08-18T00:00:21.770Z,0
2017-08-18T00:01:32.011Z,0
2017-08-18T00:02:41.311Z,0
2017-08-18T00:03:51.236Z,0
2017-08-18T00:05:01.470Z,0
2017-08-18T00:06:11.099Z,0
2017-08-18T00:07:21.028Z,0
2017-08-18T00:08:30.673Z,0
2017-08-18T00:09:40.923Z,0
2017-08-18T00:10:50.858Z,0
2017-08-18T00:12:00.572Z,0
2017-08-18T00:13:10.188Z,0
2017-08-18T00:14:19.808Z,0
2017-08-18T00:15:29.431Z,0
2017-08-18T00:16:39.665Z,0
2017-08-18T00:17:48.971Z,0
2017-08-18T00:18:59.197Z,0
2017-08-18T00:20:09.127Z,0
2017-08-18T00:21:18.739Z,0
2017-08-18T00:22:28.966Z,0
2017-08-18T00:23:39.368Z,0
2017-08-18T00:24:49.285Z,0
2017-08-18T00:25:59.207Z,0
2017-08-18T00:27:09.515Z,0
2017-08-18T00:28:19.449Z,0
2017-08-18T00:29:29.386Z,0
2017-08-18T00:30:39.310Z,0
2017-08-18T00:31:49.242Z,0
2017-08-18T00:32:59.159Z,0
2017-08-18T00:34:09.067Z,0
2017-08-18T00:35:18.975Z,0
2017-08-18T00:36:28.891Z,0
2017-08-18T00:37:38.816Z,0
2017-08-18T00:38:49.060Z,0
2017-08-18T00:39:59.289Z,0
2017-08-18T00:41:09.670Z,0
2017-08-18T00:42:19.310Z,0
2017-08-18T00:43:29.223Z,0
2017-08-18T00:44:39.446Z,0
2017-08-18T00:45:49.386Z,0
2017-08-18T00:46:59.458Z,0
2017-08-18T00:48:09.376Z,0
2017-08-18T00:49:19.617Z,0
2017-08-18T00:50:29.563Z,0
2017-08-18T00:51:39.822Z,0
2017-08-18T00:52:49.464Z,0
2017-08-18T00:53:59.134Z,0
2017-08-18T00:55:09.367Z,0
2017-08-18T00:56:18.989Z,0
2017-08-18T00:57:28.906Z,0
2017-08-18T00:58:38.663Z,0
2017-08-18T00:59:48.881Z,0
2017-08-18T01:00:58.809Z,0
2017-08-18T01:02:08.427Z,0
2017-08-18T01:03:18.045Z,0
2017-08-18T01:04:28.118Z,0
2017-08-18T01:05:37.730Z,0
2017-08-18T01:06:47.947Z,0
2017-08-18T01:07:57.885Z,0
2017-08-18T01:09:07.800Z,0
2017-08-18T01:10:17.115Z,0
2017-08-18T01:11:26.765Z,0
2017-08-18T01:12:37.019Z,0
2017-08-18T01:13:46.636Z,0
2017-08-18T01:14:56.553Z,0
2017-08-18T01:16:06.629Z,0
2017-08-18T01:17:16.852Z,0
2017-08-18T01:18:27.072Z,0
2017-08-18T01:19:36.671Z,0
2017-08-18T01:20:46.578Z,0
2017-08-18T01:21:56.343Z,0
2017-08-18T01:23:05.940Z,0
2017-08-18T01:24:15.880Z,0
2017-08-18T01:25:26.124Z,0
2017-08-18T01:26:36.043Z,0
2017-08-18T01:27:46.619Z,0
2017-08-18T01:28:55.610Z,0
2017-08-18T01:30:05.531Z,0
2017-08-18T01:31:15.750Z,0
2017-08-18T01:32:25.050Z,0
2017-08-18T01:33:35.316Z,0
2017-08-18T01:34:44.982Z,0
2017-08-18T01:35:55.201Z,0
2017-08-18T01:37:04.806Z,0
2017-08-18T01:38:14.722Z,0
2017-08-18T01:39:25.033Z,0
2017-08-18T01:40:35.279Z,0
2017-08-18T01:41:45.192Z,0
2017-08-18T01:42:55.120Z,0
2017-08-18T01:44:05.032Z,0
2017-08-18T01:45:14.025Z,0
2017-08-18T01:46:24.243Z,0
2017-08-18T01:47:34.470Z,0
2017-08-18T01:48:44.400Z,0
2017-08-18T01:49:54.630Z,0
2017-08-18T01:51:04.699Z,0
2017-08-18T01:52:14.638Z,0
2017-08-18T01:53:24.252Z,0
2017-08-18T01:54:34.175Z,0
2017-08-18T01:55:44.083Z,0
2017-08-18T01:56:54.296Z,0
2017-08-18T01:58:04.522Z,0
2017-08-18T01:59:14.438Z,0
2017-08-18T02:00:24.055Z,0
2017-08-18T02:01:33.360Z,0
2017-08-18T02:02:42.987Z,0
2017-08-18T02:03:52.913Z,0
2017-08-18T02:05:02.515Z,0
2017-08-18T02:06:12.459Z,0
2017-08-18T02:07:22.686Z,0
2017-08-18T02:08:33.210Z,0
2017-08-18T02:09:43.460Z,0
2017-08-18T02:10:53.386Z,0
2017-08-18T02:12:03.609Z,0
2017-08-18T02:13:13.218Z,0
2017-08-18T02:14:23.263Z,0
2017-08-18T02:15:33.171Z,0
2017-08-18T02:16:42.485Z,0
2017-08-18T02:17:52.423Z,0
2017-08-18T02:19:02.325Z,0
2017-08-18T02:20:12.264Z,0
2017-08-18T02:21:21.567Z,0
2017-08-18T02:22:31.475Z,0
2017-08-18T02:23:41.112Z,0
2017-08-18T02:24:50.719Z,0
2017-08-18T02:26:00.124Z,0
2017-08-18T02:27:10.346Z,0
2017-08-18T02:28:20.256Z,0
2017-08-18T02:29:29.858Z,0
2017-08-18T02:30:40.086Z,0
2017-08-18T02:31:49.857Z,0
2017-08-18T02:33:00.069Z,0
2017-08-18T02:34:10.304Z,0
2017-08-18T02:35:20.215Z,0
2017-08-18T02:36:30.446Z,0
2017-08-18T02:37:40.712Z,0
2017-08-18T02:38:50.333Z,0
2017-08-18T02:40:00.257Z,0
2017-08-18T02:41:10.490Z,0
2017-08-18T02:42:20.726Z,0
2017-08-18T02:43:30.432Z,0
2017-08-18T02:44:40.363Z,0
2017-08-18T02:45:49.989Z,0
2017-08-18T02:46:59.603Z,0
2017-08-18T02:48:09.226Z,0
2017-08-18T02:49:19.299Z,0
2017-08-18T02:50:29.545Z,0
2017-08-18T02:51:39.458Z,0
2017-08-18T02:52:50.064Z,0
2017-08-18T02:54:00.286Z,0
2017-08-18T02:55:10.204Z,0
2017-08-18T02:56:20.137Z,0
2017-08-18T02:57:29.744Z,0
2017-08-18T02:58:38.435Z,0
2017-08-18T02:59:48.651Z,0
2017-08-18T03:00:58.921Z,0
2017-08-18T03:02:08.838Z,0
2017-08-18T03:03:19.065Z,0
2017-08-18T03:04:28.372Z,0
2017-08-18T03:05:38.605Z,0
2017-08-18T03:06:49.006Z,0
2017-08-18T03:07:59.231Z,0
2017-08-18T03:09:09.448Z,0
2017-08-18T03:10:19.059Z,0
2017-08-18T03:11:29.279Z,0
2017-08-18T03:12:39.053Z,0
2017-08-18T03:13:48.669Z,0
2017-08-18T03:14:58.305Z,0
2017-08-18T03:16:08.229Z,0
2017-08-18T03:17:18.137Z,0
2017-08-18T03:18:28.508Z,0
2017-08-18T03:19:38.112Z,0
2017-08-18T03:20:47.420Z,0
2017-08-18T03:22:22.410Z,0
2017-08-18T03:23:32.642Z,0
2017-08-18T03:24:42.577Z,0
2017-08-18T03:25:52.811Z,0
2017-08-18T03:27:03.067Z,0
2017-08-18T03:28:12.688Z,0
2017-08-18T03:29:22.917Z,0
2017-08-18T03:30:32.528Z,0
2017-08-18T03:31:42.469Z,0
2017-08-18T03:32:52.092Z,0
2017-08-18T03:34:02.038Z,0
2017-08-18T03:35:11.644Z,0
2017-08-18T03:36:21.323Z,0
2017-08-18T03:37:30.938Z,0
2017-08-18T03:38:40.585Z,0
2017-08-18T03:39:50.811Z,0
2017-08-18T03:41:00.736Z,0
2017-08-18T03:42:10.384Z,0
2017-08-18T03:43:20.629Z,0
2017-08-18T03:44:30.550Z,0
2017-08-18T03:45:40.153Z,0
2017-08-18T03:46:50.084Z,0
2017-08-18T03:48:00.002Z,0
2017-08-18T03:49:10.244Z,0
2017-08-18T03:50:19.570Z,0
2017-08-18T03:51:29.502Z,0
2017-08-18T03:52:39.130Z,0
2017-08-18T03:53:49.350Z,0
2017-08-18T03:54:59.584Z,0
2017-08-18T03:56:09.521Z,0
2017-08-18T03:57:19.472Z,0
2017-08-18T03:58:29.108Z,0
2017-08-18T03:59:39.044Z,0
2017-08-18T04:00:48.663Z,0
2017-08-18T04:01:58.888Z,0
2017-08-18T04:03:08.543Z,0
2017-08-18T04:04:18.478Z,0
2017-08-18T04:05:28.091Z,0
2017-08-18T04:06:37.396Z,0
2017-08-18T04:07:47.320Z,0
2017-08-18T04:08:57.539Z,0
2017-08-18T04:10:07.459Z,0
2017-08-18T04:11:17.409Z,0
2017-08-18T04:12:27.039Z,0
2017-08-18T04:13:36.963Z,0
2017-08-18T04:14:47.210Z,0
2017-08-18T04:15:57.145Z,0
2017-08-18T04:17:07.099Z,0
2017-08-18T04:18:16.720Z,0
2017-08-18T04:19:26.635Z,0
2017-08-18T04:20:36.553Z,0
2017-08-18T04:21:46.474Z,0
2017-08-18T04:22:56.406Z,4
2017-08-18T04:24:06.648Z,4
2017-08-18T04:25:16.567Z,4
2017-08-18T04:26:26.199Z,4
2017-08-18T04:27:35.813Z,4
2017-08-18T04:28:45.433Z,4
2017-08-18T04:29:55.658Z,4
2017-08-18T04:31:05.887Z,8
2017-08-18T04:32:15.496Z,4
2017-08-18T04:33:25.414Z,8
2017-08-18T04:34:35.646Z,12
2017-08-18T04:35:45.883Z,12
2017-08-18T04:36:56.108Z,16
2017-08-18T04:38:06.036Z,16
2017-08-18T04:39:15.980Z,16
2017-08-18T04:40:25.284Z,16
2017-08-18T04:41:34.587Z,12
2017-08-18T04:42:44.821Z,12
2017-08-18T04:43:55.048Z,12
2017-08-18T04:45:04.980Z,16
2017-08-18T04:46:15.213Z,16
2017-08-18T04:47:24.824Z,20
2017-08-18T04:48:34.745Z,20
2017-08-18T04:49:44.052Z,24
2017-08-18T04:50:54.290Z,24
2017-08-18T04:52:04.509Z,28
2017-08-18T04:53:13.815Z,32
2017-08-18T04:54:24.112Z,36
2017-08-18T04:55:34.036Z,36
2017-08-18T04:56:44.285Z,32
2017-08-18T04:57:54.215Z,32
2017-08-18T04:59:04.449Z,28
2017-08-18T05:00:14.695Z,28
2017-08-18T05:01:24.925Z,28
2017-08-18T05:02:34.229Z,20
2017-08-18T05:03:44.156Z,24
2017-08-18T05:04:54.388Z,28
2017-08-18T05:06:04.321Z,32
2017-08-18T05:07:14.557Z,40
2017-08-18T05:08:23.881Z,48
2017-08-18T05:09:33.481Z,48
2017-08-18T05:10:43.712Z,52
2017-08-18T05:11:53.645Z,56
2017-08-18T05:13:03.278Z,60
2017-08-18T05:14:13.201Z,60
2017-08-18T05:15:23.125Z,64
2017-08-18T05:16:33.361Z,64
2017-08-18T05:17:43.286Z,64
2017-08-18T05:18:52.895Z,68
2017-08-18T05:20:03.118Z,64
2017-08-18T05:21:12.437Z,64
2017-08-18T05:22:22.380Z,56
2017-08-18T05:23:32.614Z,56
2017-08-18T05:24:41.651Z,52
2017-08-18T05:25:51.569Z,48
2017-08-18T05:27:01.512Z,52
2017-08-18T05:28:11.431Z,48
2017-08-18T05:29:21.671Z,40
2017-08-18T05:30:31.594Z,44
2017-08-18T05:31:41.521Z,44
2017-08-18T05:32:51.772Z,48
2017-08-18T05:34:01.696Z,56
2017-08-18T05:35:11.936Z,64
2017-08-18T05:36:21.543Z,68
2017-08-18T05:37:31.474Z,76
2017-08-18T05:38:41.101Z,84
2017-08-18T05:39:51.027Z,92
2017-08-18T05:41:00.966Z,92
2017-08-18T05:42:11.211Z,88
2017-08-18T05:43:21.452Z,80
2017-08-18T05:44:31.400Z,80
2017-08-18T05:45:41.318Z,84
2017-08-18T05:46:51.562Z,84
2017-08-18T05:48:01.544Z,92
2017-08-18T05:49:11.177Z,104
2017-08-18T05:50:20.794Z,112
2017-08-18T05:51:30.429Z,116
2017-08-18T05:52:40.352Z,124
2017-08-18T05:53:50.577Z,116
2017-08-18T05:55:00.347Z,112
2017-08-18T05:56:09.976Z,112
2017-08-18T05:57:19.945Z,116
2017-08-18T05:58:30.202Z,120
2017-08-18T05:59:39.523Z,124
2017-08-18T06:00:49.141Z,128
2017-08-18T06:01:59.079Z,136
2017-08-18T06:03:09.016Z,140
2017-08-18T06:04:18.016Z,136
2017-08-18T06:05:27.653Z,140
2017-08-18T06:06:37.302Z,140
2017-08-18T06:07:47.574Z,144
2017-08-18T06:08:57.510Z,144
2017-08-18T06:10:07.139Z,144
2017-08-18T06:11:16.461Z,156
2017-08-18T06:12:25.768Z,156
2017-08-18T06:13:35.385Z,164
2017-08-18T06:14:45.616Z,156
2017-08-18T06:15:55.843Z,156
2017-08-18T06:17:06.073Z,168
2017-08-18T06:18:15.996Z,184
2017-08-18T06:19:26.226Z,184
2017-08-18T06:20:36.471Z,164
2017-08-18T06:21:46.713Z,160
2017-08-18T06:22:56.636Z,156
2017-08-18T06:24:06.562Z,156
2017-08-18T06:25:16.788Z,156
2017-08-18T06:26:26.722Z,160
2017-08-18T06:27:36.959Z,168
2017-08-18T06:28:47.196Z,172
2017-08-18T06:29:57.454Z,176
2017-08-18T06:31:07.399Z,176
2017-08-18T06:32:17.634Z,192
2017-08-18T06:33:27.274Z,204
2017-08-18T06:34:36.955Z,212
2017-08-18T06:35:46.901Z,224
2017-08-18T06:36:56.233Z,224
2017-08-18T06:38:05.853Z,196
2017-08-18T06:39:16.097Z,176
2017-08-18T06:40:25.421Z,176
2017-08-18T06:41:35.654Z,184
2017-08-18T06:42:45.591Z,192
2017-08-18T06:43:55.829Z,208
2017-08-18T06:45:05.838Z,232
2017-08-18T06:46:16.100Z,280
2017-08-18T06:47:26.355Z,332
2017-08-18T06:48:35.967Z,356
2017-08-18T06:49:45.280Z,380
2017-08-18T06:50:55.516Z,396
2017-08-18T06:52:05.157Z,392
2017-08-18T06:53:14.778Z,408
2017-08-18T06:54:24.723Z,380
2017-08-18T06:55:34.654Z,344
2017-08-18T06:56:44.920Z,292
2017-08-18T06:57:55.178Z,264
2017-08-18T06:59:05.129Z,208
2017-08-18T07:00:14.745Z,156
2017-08-18T07:01:24.737Z,140
2017-08-18T07:02:35.004Z,116
2017-08-18T07:03:44.952Z,88
2017-08-18T07:04:54.877Z,76
2017-08-18T07:06:04.850Z,100
2017-08-18T07:07:14.785Z,168
2017-08-18T07:08:24.727Z,276
2017-08-18T07:09:34.979Z,308
2017-08-18T07:10:44.956Z,296
2017-08-18T07:11:54.900Z,300
2017-08-18T07:13:04.881Z,340
2017-08-18T07:14:14.820Z,368
2017-08-18T07:15:25.059Z,412
2017-08-18T07:16:35.401Z,436
2017-08-18T07:17:45.641Z,452
2017-08-18T07:18:55.874Z,428
2017-08-18T07:20:05.503Z,432
2017-08-18T07:21:15.138Z,420
2017-08-18T07:22:25.381Z,360
2017-08-18T07:23:34.725Z,396
2017-08-18T07:24:44.977Z,404
2017-08-18T07:25:54.911Z,420
2017-08-18T07:27:04.852Z,444
2017-08-18T07:28:15.085Z,404
2017-08-18T07:29:24.404Z,400
2017-08-18T07:30:34.333Z,396
2017-08-18T07:31:44.261Z,396
2017-08-18T07:32:53.882Z,388
2017-08-18T07:34:04.119Z,388
2017-08-18T07:35:14.055Z,388
2017-08-18T07:36:23.368Z,388
2017-08-18T07:37:32.710Z,336
2017-08-18T07:38:42.956Z,276
2017-08-18T07:39:52.896Z,272
2017-08-18T07:41:02.827Z,336
2017-08-18T07:42:13.064Z,396
2017-08-18T07:43:23.311Z,440
2017-08-18T07:44:33.557Z,460
2017-08-18T07:45:42.877Z,448
2017-08-18T07:46:52.191Z,440
2017-08-18T07:48:02.138Z,452
2017-08-18T07:49:12.072Z,448
2017-08-18T07:50:22.047Z,464
2017-08-18T07:51:31.044Z,476
2017-08-18T07:52:40.966Z,512
2017-08-18T07:53:50.905Z,552
2017-08-18T07:55:01.135Z,572
2017-08-18T07:56:11.087Z,592
2017-08-18T07:57:21.049Z,600
2017-08-18T07:58:30.058Z,620
2017-08-18T07:59:40.016Z,612
2017-08-18T08:00:50.259Z,600
2017-08-18T08:02:00.414Z,604
2017-08-18T08:03:10.645Z,616
2017-08-18T08:04:20.899Z,628
2017-08-18T08:05:30.215Z,644
2017-08-18T08:06:40.139Z,660
2017-08-18T08:07:49.755Z,688
2017-08-18T08:09:00.008Z,716
2017-08-18T08:10:09.332Z,744
2017-08-18T08:11:19.278Z,748
2017-08-18T08:12:29.226Z,744
2017-08-18T08:13:38.853Z,736
2017-08-18T08:14:49.098Z,712
2017-08-18T08:15:59.043Z,688
2017-08-18T08:17:08.968Z,672
2017-08-18T08:18:18.906Z,648
2017-08-18T08:19:28.539Z,648
2017-08-18T08:20:38.514Z,660
2017-08-18T08:21:48.460Z,664
2017-08-18T08:22:58.075Z,668
2017-08-18T08:24:08.338Z,648
2017-08-18T08:25:18.306Z,672
2017-08-18T08:26:27.624Z,680
2017-08-18T08:27:37.265Z,684
2017-08-18T08:28:47.519Z,676
2017-08-18T08:29:57.166Z,668
2017-08-18T08:31:07.443Z,660
2017-08-18T08:32:17.687Z,628
2017-08-18T08:33:27.961Z,620
2017-08-18T08:34:37.910Z,600
2017-08-18T08:35:47.522Z,624
2017-08-18T08:36:57.166Z,692
2017-08-18T08:38:07.117Z,752
2017-08-18T08:39:17.076Z,784
2017-08-18T08:40:27.030Z,740
2017-08-18T08:41:37.285Z,744
2017-08-18T08:42:47.565Z,772
2017-08-18T08:43:57.807Z,776
2017-08-18T08:45:07.207Z,800
2017-08-18T08:46:17.150Z,900
2017-08-18T08:47:27.417Z,1028
2017-08-18T08:48:37.058Z,1048
2017-08-18T08:49:47.019Z,1008
2017-08-18T08:50:56.664Z,1000
2017-08-18T08:52:06.274Z,1048
2017-08-18T08:53:15.590Z,1076
2017-08-18T08:54:25.847Z,1140
2017-08-18T08:55:35.807Z,1168
2017-08-18T08:56:45.759Z,1260
2017-08-18T08:57:55.380Z,1428
2017-08-18T08:59:05.015Z,1680
2017-08-18T09:00:14.337Z,1740
2017-08-18T09:01:23.972Z,2056
2017-08-18T09:02:34.225Z,2060
2017-08-18T09:03:44.473Z,2100
2017-08-18T09:04:54.103Z,1844
2017-08-18T09:06:04.052Z,1620
2017-08-18T09:07:13.987Z,1716
2017-08-18T09:08:23.917Z,1856
2017-08-18T09:09:32.937Z,2220
2017-08-18T09:10:42.266Z,2348
2017-08-18T09:11:52.513Z,2068
2017-08-18T09:13:02.800Z,1824
2017-08-18T09:14:13.065Z,1604
2017-08-18T09:15:22.728Z,1696
2017-08-18T09:16:32.073Z,1480
2017-08-18T09:17:41.698Z,1516
2017-08-18T09:18:51.352Z,1392
2017-08-18T09:20:01.325Z,1432
2017-08-18T09:21:10.946Z,1264
2017-08-18T09:22:20.887Z,1296
2017-08-18T09:23:30.811Z,1280
2017-08-18T09:24:41.050Z,1356
2017-08-18T09:25:51.300Z,1236
2017-08-18T09:27:01.554Z,1188
2017-08-18T09:28:11.184Z,956
2017-08-18T09:29:20.795Z,864
2017-08-18T09:30:30.730Z,788
2017-08-18T09:31:40.978Z,1168
2017-08-18T09:32:50.917Z,1252
2017-08-18T09:34:00.554Z,1108
2017-08-18T09:35:10.489Z,884
2017-08-18T09:36:20.478Z,912
2017-08-18T09:37:30.719Z,1208
2017-08-18T09:38:41.010Z,1400
2017-08-18T09:39:50.971Z,1504
2017-08-18T09:41:00.598Z,1520
2017-08-18T09:42:10.517Z,1328
2017-08-18T09:43:20.158Z,1608
2017-08-18T09:44:30.091Z,1608
2017-08-18T09:45:40.337Z,1340
2017-08-18T09:46:50.270Z,1660
2017-08-18T09:48:00.210Z,1808
2017-08-18T09:49:10.154Z,1852
2017-08-18T09:50:20.086Z,1816
2017-08-18T09:51:30.031Z,1568
2017-08-18T09:52:39.959Z,1484
2017-08-18T09:53:49.975Z,1444
2017-08-18T09:54:59.894Z,1564
2017-08-18T09:56:10.150Z,1572
2017-08-18T09:57:19.791Z,1620
2017-08-18T09:58:29.755Z,1764
2017-08-18T09:59:39.674Z,1940
2017-08-18T10:00:49.636Z,2024
2017-08-18T10:01:59.576Z,2024
2017-08-18T10:03:09.496Z,2104
2017-08-18T10:04:19.126Z,2016
2017-08-18T10:05:29.066Z,1880
2017-08-18T10:06:38.682Z,1816
2017-08-18T10:07:48.931Z,1608
2017-08-18T10:08:58.245Z,1568
2017-08-18T10:10:08.187Z,1512
2017-08-18T10:11:18.124Z,1432
2017-08-18T10:12:28.353Z,1464
2017-08-18T10:13:37.989Z,1508
2017-08-18T10:14:48.238Z,1528
2017-08-18T10:15:58.069Z,1556
2017-08-18T10:17:08.319Z,1492
2017-08-18T10:18:17.965Z,1540
2017-08-18T10:19:27.310Z,1628
2017-08-18T10:20:37.570Z,1540
2017-08-18T10:21:47.546Z,1420
2017-08-18T10:22:57.795Z,1608
2017-08-18T10:24:07.445Z,1668
2017-08-18T10:25:17.121Z,1660
2017-08-18T10:26:27.383Z,1656
2017-08-18T10:27:37.621Z,1692
2017-08-18T10:28:47.567Z,1624
2017-08-18T10:29:57.530Z,1536
2017-08-18T10:31:07.158Z,1516
2017-08-18T10:32:17.111Z,1552
2017-08-18T10:33:27.051Z,1580
2017-08-18T10:34:37.007Z,1632
2017-08-18T10:35:46.959Z,1636
2017-08-18T10:36:56.885Z,1540
2017-08-18T10:38:07.156Z,1540
2017-08-18T10:39:16.799Z,1548
2017-08-18T10:40:26.762Z,1568
2017-08-18T10:41:36.403Z,1540
2017-08-18T10:42:46.653Z,1532
2017-08-18T10:43:56.001Z,1592
2017-08-18T10:45:06.266Z,1608
2017-08-18T10:46:15.892Z,1660
2017-08-18T10:47:25.838Z,1824
2017-08-18T10:48:35.157Z,1892
2017-08-18T10:49:45.414Z,1840
2017-08-18T10:50:55.037Z,1752
2017-08-18T10:52:04.967Z,1676
2017-08-18T10:53:14.620Z,1564
2017-08-18T10:54:24.898Z,1496
2017-08-18T10:55:35.170Z,1440
2017-08-18T10:56:45.416Z,1392
2017-08-18T10:57:55.269Z,1388
2017-08-18T10:59:05.203Z,1424
2017-08-18T11:00:15.479Z,1428
2017-08-18T11:01:25.732Z,1352
2017-08-18T11:02:35.679Z,1408
2017-08-18T11:03:45.920Z,1448
2017-08-18T11:04:55.858Z,1460
2017-08-18T11:06:05.508Z,1480
2017-08-18T11:07:15.448Z,1364
2017-08-18T11:08:25.388Z,1424
2017-08-18T11:09:35.054Z,1412
2017-08-18T11:10:44.988Z,1412
2017-08-18T11:11:54.943Z,1228
2017-08-18T11:13:04.911Z,1148
2017-08-18T11:14:14.558Z,1176
2017-08-18T11:15:24.506Z,1196
2017-08-18T11:16:34.774Z,1072
2017-08-18T11:17:44.724Z,1000
2017-08-18T11:18:54.681Z,896
2017-08-18T11:20:04.340Z,808
2017-08-18T11:21:14.009Z,780
2017-08-18T11:22:23.645Z,756
2017-08-18T11:23:32.990Z,700
2017-08-18T11:24:42.943Z,724
2017-08-18T11:25:53.193Z,732
2017-08-18T11:27:03.484Z,848
2017-08-18T11:28:12.817Z,928
2017-08-18T11:29:22.758Z,948
2017-08-18T11:30:31.486Z,932
2017-08-18T11:31:41.113Z,816
2017-08-18T11:32:50.748Z,760
2017-08-18T11:34:00.688Z,756
2017-08-18T11:35:10.697Z,736
2017-08-18T11:36:20.326Z,692
2017-08-18T11:37:30.257Z,644
2017-08-18T11:38:40.513Z,744
2017-08-18T11:39:50.467Z,932
2017-08-18T11:41:00.713Z,876
2017-08-18T11:42:10.653Z,912
2017-08-18T11:43:20.578Z,956
2017-08-18T11:44:29.934Z,944
2017-08-18T11:45:40.200Z,1012
2017-08-18T11:46:50.175Z,1016
2017-08-18T11:48:00.417Z,1088
2017-08-18T11:49:10.366Z,1092
2017-08-18T11:50:20.321Z,1068
2017-08-18T11:51:30.268Z,1052
2017-08-18T11:52:39.921Z,1036
2017-08-18T11:53:49.891Z,980
2017-08-18T11:54:59.509Z,952
2017-08-18T11:56:09.443Z,956
2017-08-18T11:57:19.385Z,984
2017-08-18T11:58:29.354Z,1020
2017-08-18T11:59:38.965Z,1052
2017-08-18T12:00:49.233Z,1080
2017-08-18T12:01:59.473Z,1052
2017-08-18T12:03:09.420Z,996
2017-08-18T12:04:19.365Z,920
2017-08-18T12:05:28.994Z,904
2017-08-18T12:06:38.935Z,876
2017-08-18T12:07:47.943Z,884
2017-08-18T12:08:58.203Z,876
2017-08-18T12:10:08.474Z,856
2017-08-18T12:11:18.407Z,844
2017-08-18T12:12:28.342Z,696
2017-08-18T12:13:37.667Z,512
2017-08-18T12:14:47.959Z,380
2017-08-18T12:15:57.603Z,388
2017-08-18T12:17:07.568Z,408
2017-08-18T12:18:17.206Z,396
2017-08-18T12:19:26.836Z,360
2017-08-18T12:20:36.772Z,284
2017-08-18T12:21:46.422Z,236
2017-08-18T12:22:55.735Z,240
2017-08-18T12:24:05.973Z,216
2017-08-18T12:25:15.647Z,264
2017-08-18T12:26:24.966Z,340
2017-08-18T12:27:34.950Z,352
2017-08-18T12:28:45.268Z,404
2017-08-18T12:29:54.894Z,452
2017-08-18T12:31:04.214Z,352
2017-08-18T12:32:13.239Z,312
2017-08-18T12:33:23.475Z,264
2017-08-18T12:34:33.401Z,280
2017-08-18T12:35:43.344Z,356
2017-08-18T12:36:53.582Z,276
2017-08-18T12:38:03.817Z,208
2017-08-18T12:39:14.084Z,360
2017-08-18T12:40:24.046Z,456
2017-08-18T12:41:33.665Z,344
2017-08-18T12:42:43.897Z,424
2017-08-18T12:43:53.852Z,856
2017-08-18T12:45:04.104Z,944
2017-08-18T12:46:14.347Z,980
2017-08-18T12:47:24.303Z,988
2017-08-18T12:48:34.247Z,964
2017-08-18T12:49:44.208Z,912
2017-08-18T12:50:53.837Z,868
2017-08-18T12:52:04.145Z,844
2017-08-18T12:53:14.090Z,836
2017-08-18T12:54:23.424Z,808
2017-08-18T12:55:33.684Z,812
2017-08-18T12:56:43.000Z,820
2017-08-18T12:57:52.937Z,816
2017-08-18T12:59:02.870Z,832
2017-08-18T13:00:12.895Z,824
2017-08-18T13:01:22.854Z,808
2017-08-18T13:02:32.477Z,792
2017-08-18T13:03:42.100Z,768
2017-08-18T13:04:52.352Z,724
2017-08-18T13:06:02.603Z,688
2017-08-18T13:07:12.536Z,580
2017-08-18T13:08:22.172Z,568
2017-08-18T13:09:32.125Z,624
2017-08-18T13:10:42.381Z,620
2017-08-18T13:11:52.321Z,548
2017-08-18T13:13:02.284Z,548
2017-08-18T13:14:12.228Z,628
2017-08-18T13:15:22.476Z,708
2017-08-18T13:16:32.444Z,624
2017-08-18T13:17:42.383Z,552
2017-08-18T13:18:52.020Z,616
2017-08-18T13:20:01.349Z,636
2017-08-18T13:21:10.986Z,648
2017-08-18T13:22:21.213Z,680
2017-08-18T13:23:31.163Z,700
2017-08-18T13:24:40.786Z,696
2017-08-18T13:25:50.409Z,580
2017-08-18T13:27:00.360Z,548
2017-08-18T13:28:10.300Z,648
2017-08-18T13:29:20.565Z,620
2017-08-18T13:30:30.198Z,552
2017-08-18T13:31:40.123Z,636
2017-08-18T13:32:50.052Z,660
2017-08-18T13:34:00.310Z,696
2017-08-18T13:35:10.243Z,704
2017-08-18T13:36:20.190Z,452
2017-08-18T13:37:30.431Z,444
2017-08-18T13:38:40.069Z,492
2017-08-18T13:39:50.003Z,400
2017-08-18T13:40:59.946Z,344
2017-08-18T13:42:09.883Z,428
2017-08-18T13:43:19.509Z,300
2017-08-18T13:44:29.436Z,168
2017-08-18T13:45:39.067Z,108
2017-08-18T13:46:49.333Z,120
2017-08-18T13:47:59.267Z,172
2017-08-18T13:49:09.521Z,200
2017-08-18T13:50:19.748Z,188
2017-08-18T13:51:29.375Z,204
2017-08-18T13:52:39.309Z,236
2017-08-18T13:53:49.558Z,328
2017-08-18T13:54:59.826Z,452
2017-08-18T13:56:09.452Z,452
2017-08-18T13:57:19.101Z,428
2017-08-18T13:58:29.360Z,440
2017-08-18T13:59:39.288Z,500
2017-08-18T14:00:49.218Z,556
2017-08-18T14:01:59.450Z,620
2017-08-18T14:03:09.688Z,652
2017-08-18T14:04:19.307Z,636
2017-08-18T14:05:29.250Z,608
2017-08-18T14:06:39.483Z,628
2017-08-18T14:07:49.734Z,616
2017-08-18T14:08:59.367Z,588
2017-08-18T14:10:09.309Z,564
2017-08-18T14:11:19.249Z,544
2017-08-18T14:12:29.504Z,532
2017-08-18T14:13:39.127Z,516
2017-08-18T14:14:48.444Z,496
2017-08-18T14:15:58.691Z,472
2017-08-18T14:17:08.614Z,448
2017-08-18T14:18:18.867Z,432
2017-08-18T14:19:28.512Z,432
2017-08-18T14:20:37.835Z,428
2017-08-18T14:21:47.452Z,440
2017-08-18T14:22:57.079Z,456
2017-08-18T14:24:07.029Z,468
2017-08-18T14:25:17.310Z,472
2017-08-18T14:26:27.270Z,472
2017-08-18T14:27:37.196Z,472
2017-08-18T14:28:47.145Z,476
2017-08-18T14:29:57.402Z,480
2017-08-18T14:31:07.034Z,476
2017-08-18T14:32:17.011Z,464
2017-08-18T14:33:26.983Z,452
2017-08-18T14:34:37.261Z,440
2017-08-18T14:35:47.222Z,428
2017-08-18T14:36:56.550Z,404
2017-08-18T14:38:06.495Z,380
2017-08-18T14:39:16.732Z,364
2017-08-18T14:40:26.663Z,344
2017-08-18T14:41:36.287Z,336
2017-08-18T14:42:45.907Z,336
2017-08-18T14:43:55.541Z,340
2017-08-18T14:45:04.928Z,356
2017-08-18T14:46:14.859Z,376
2017-08-18T14:47:25.096Z,384
2017-08-18T14:48:35.355Z,400
2017-08-18T14:49:45.322Z,408
2017-08-18T14:50:55.555Z,412
2017-08-18T14:52:05.496Z,416
2017-08-18T14:53:15.125Z,420
2017-08-18T14:54:25.376Z,432
2017-08-18T14:55:35.328Z,428
2017-08-18T14:56:44.665Z,420
2017-08-18T14:57:54.906Z,416
2017-08-18T14:59:04.854Z,408
2017-08-18T15:00:14.482Z,412
2017-08-18T15:01:24.727Z,432
2017-08-18T15:02:34.668Z,444
2017-08-18T15:03:44.627Z,456
2017-08-18T15:04:54.261Z,472
2017-08-18T15:06:04.197Z,480
2017-08-18T15:07:14.137Z,488
2017-08-18T15:08:23.774Z,516
2017-08-18T15:09:33.716Z,540
2017-08-18T15:10:43.654Z,548
2017-08-18T15:11:53.282Z,556
2017-08-18T15:13:03.516Z,560
2017-08-18T15:14:13.144Z,556
2017-08-18T15:15:23.398Z,564
2017-08-18T15:16:33.047Z,556
2017-08-18T15:17:43.001Z,548
2017-08-18T15:18:52.372Z,536
2017-08-18T15:20:02.624Z,536
2017-08-18T15:21:11.638Z,532
2017-08-18T15:22:21.272Z,532
2017-08-18T15:23:31.044Z,560
2017-08-18T15:24:40.981Z,576
2017-08-18T15:25:50.718Z,576
2017-08-18T15:27:00.656Z,568
2017-08-18T15:28:10.594Z,564
2017-08-18T15:29:20.248Z,552
2017-08-18T15:30:29.922Z,548
2017-08-18T15:31:39.863Z,552
2017-08-18T15:32:49.516Z,560
2017-08-18T15:33:59.166Z,572
2017-08-18T15:35:09.109Z,596
2017-08-18T15:36:19.382Z,624
2017-08-18T15:37:29.648Z,640
2017-08-18T15:38:39.596Z,652
2017-08-18T15:39:49.849Z,656
2017-08-18T15:41:00.120Z,664
2017-08-18T15:42:09.761Z,688
2017-08-18T15:43:19.402Z,696
2017-08-18T15:44:29.034Z,696
2017-08-18T15:45:39.672Z,692
2017-08-18T15:46:49.621Z,688
2017-08-18T15:47:59.265Z,684
2017-08-18T15:49:09.205Z,656
2017-08-18T15:50:19.476Z,608
2017-08-18T15:51:29.120Z,564
2017-08-18T15:52:39.058Z,536
2017-08-18T15:53:49.020Z,512
2017-08-18T15:54:58.962Z,492
2017-08-18T15:56:08.907Z,492
2017-08-18T15:57:18.544Z,512
2017-08-18T15:58:28.189Z,532
2017-08-18T15:59:37.845Z,544
2017-08-18T16:00:47.475Z,560
2017-08-18T16:01:56.801Z,580
2017-08-18T16:03:06.431Z,596
2017-08-18T16:04:16.423Z,608
2017-08-18T16:05:25.737Z,608
2017-08-18T16:06:35.347Z,596
2017-08-18T16:07:44.982Z,576
2017-08-18T16:08:54.911Z,560
2017-08-18T16:10:04.851Z,544
2017-08-18T16:11:15.106Z,540
2017-08-18T16:12:25.376Z,556
2017-08-18T16:13:35.303Z,580
2017-08-18T16:14:45.544Z,592
2017-08-18T16:15:55.500Z,608
2017-08-18T16:17:05.743Z,612
2017-08-18T16:18:15.368Z,604